Arnold, Michigan
Current Conditions -  °F | °C
As of 4:55 PM on Monday 24 Nov 2014 (Local Time) from KSAW Reporting Station
Overcast Overcast  
Wind Chill: -9°   Ceiling: 3400
Heat Index: -3°   Visibility: 7mi
Dew Point: -5°   Wind: 14mph
Humidity: 86%   Direction: 330°NNW
Pressure: 29.23"   Gusts: 25mph
Location:  46.05°N, 87.49°W
Report Text: KSAW 242155Z 33012G22KT 7SM SCT019 OVC034 M03/M05 A2923
Loading
Personal Weather Stations






























Interactive Weather Map New forecast layout! Learn more

10-Day Weather Forecast

Advertisements
Track Severe Weather on mobile